Time;durP1;ratioP1;P1;durP2;ratioP2;P2;SDS_P1;SDS_P2;PMS_P1;PMS_P2;Temp;Humidity;BMP_temperature;BMP_pressure;BME280_temperature;BME280_humidity;BME280_pressure;Samples;Min_cycle;Max_cycle;Signal;HPM_P1;HPM_P2
2022/05/04 00:00:08;;;;;;;;;;;8.00;99.90;;;;;;5093162;28;20413;-70
2022/05/04 00:02:36;;;;;;;;;;;8.00;99.90;;;;;;5090360;28;19928;-69
2022/05/04 00:05:02;;;;;;;;;;;8.10;99.90;;;;;;5092870;28;20004;-71
2022/05/04 00:07:27;;;;;;;;;;;8.00;99.90;;;;;;5093625;28;20573;-69
2022/05/04 00:09:55;;;;;;;;;;;8.10;99.90;;;;;;5093826;28;19989;-69
2022/05/04 00:12:21;;;;;;;;;;;8.00;99.90;;;;;;5093393;28;19924;-69
2022/05/04 00:14:47;;;;;;;;;;;8.00;99.90;;;;;;5090069;28;20356;-69
2022/05/04 00:17:12;;;;;;;;;;;8.00;99.90;;;;;;5077662;28;19924;-69
2022/05/04 00:19:38;;;;;;;;;;;8.10;99.90;;;;;;5089946;28;19924;-70
2022/05/04 00:22:03;;;;;;;;;;;8.10;99.90;;;;;;5092303;28;20378;-68
2022/05/04 00:24:29;;;;;;;;;;;8.10;99.90;;;;;;5086106;28;19971;-69
2022/05/04 00:26:54;;;;;;;;;;;8.10;99.90;;;;;;5088101;28;19924;-69
2022/05/04 00:29:20;;;;;;;;;;;8.10;99.90;;;;;;5086662;28;20389;-69
2022/05/04 00:31:46;;;;;;;;;;;8.20;99.90;;;;;;5072620;28;19936;-70
2022/05/04 00:34:11;;;;;;;;;;;8.10;99.90;;;;;;5091197;28;19924;-69
2022/05/04 00:36:37;;;;;;;;;;;8.30;99.90;;;;;;5086032;28;19924;-68
2022/05/04 00:39:02;;;;;;;;;;;8.10;99.90;;;;;;5089583;28;19924;-70
2022/05/04 00:41:28;;;;;;;;;;;8.20;99.90;;;;;;5091757;28;19924;-71
2022/05/04 00:43:54;;;;;;;;;;;8.10;99.90;;;;;;5092894;28;19931;-69
2022/05/04 00:46:20;;;;;;;;;;;8.10;99.90;;;;;;5092567;28;19931;-70
2022/05/04 00:48:46;;;;;;;;;;;8.30;99.90;;;;;;5091571;28;19980;-70
2022/05/04 00:51:12;;;;;;;;;;;8.20;99.90;;;;;;5084603;28;20515;-70
2022/05/04 00:53:39;;;;;;;;;;;8.20;99.90;;;;;;5091600;28;20392;-69
2022/05/04 00:56:05;;;;;;;;;;;8.20;99.90;;;;;;5084986;28;20024;-70
2022/05/04 01:01:16;;;;;;;;;;;8.20;99.90;;;;;;5091862;28;19947;-69
2022/05/04 01:03:41;;;;;;;;;;;8.10;99.90;;;;;;5080935;28;19928;-69
2022/05/04 01:06:07;;;;;;;;;;;8.20;99.90;;;;;;5092979;28;19924;-69
2022/05/04 01:08:32;;;;;;;;;;;8.20;99.90;;;;;;5092892;28;19999;-68
2022/05/04 01:10:58;;;;;;;;;;;8.10;99.90;;;;;;5091454;28;20296;-69
2022/05/04 01:13:24;;;;;;;;;;;8.10;99.90;;;;;;5090550;28;19924;-69
2022/05/04 01:15:49;;;;;;;;;;;8.10;99.90;;;;;;5087568;28;19924;-69
2022/05/04 01:18:15;;;;;;;;;;;8.10;99.90;;;;;;5088484;28;19930;-69
2022/05/04 01:20:41;;;;;;;;;;;8.10;99.90;;;;;;5075405;28;20453;-69
2022/05/04 01:23:06;;;;;;;;;;;8.40;99.90;;;;;;5089013;28;20316;-68
2022/05/04 01:25:32;;;;;;;;;;;8.10;99.90;;;;;;5090967;28;20016;-69
2022/05/04 01:27:57;;;;;;;;;;;8.10;99.90;;;;;;5091904;28;20438;-69
2022/05/04 01:30:23;;;;;;;;;;;8.10;99.90;;;;;;5089276;28;19932;-69
2022/05/04 01:32:48;;;;;;;;;;;8.10;99.90;;;;;;5089530;28;20431;-69
2022/05/04 01:35:14;;;;;;;;;;;8.10;99.90;;;;;;5092360;28;19924;-69
2022/05/04 01:37:40;;;;;;;;;;;8.20;99.90;;;;;;5084613;28;19931;-69
2022/05/04 01:40:07;;;;;;;;;;;8.10;99.90;;;;;;5091488;28;20048;-69
2022/05/04 01:42:33;;;;;;;;;;;8.10;99.90;;;;;;5090038;28;19924;-70
2022/05/04 01:45:03;;;;;;;;;;;8.10;99.90;;;;;;5111408;27;19924;-70
2022/05/04 01:47:29;;;;;;;;;;;8.10;99.90;;;;;;5072249;28;19994;-70
2022/05/04 01:49:54;;;;;;;;;;;8.20;99.90;;;;;;5084919;28;20024;-70
2022/05/04 01:52:20;;;;;;;;;;;8.10;99.90;;;;;;5091981;28;19950;-68
2022/05/04 01:54:45;;;;;;;;;;;8.10;99.90;;;;;;5069080;28;19924;-68
2022/05/04 01:57:11;;;;;;;;;;;8.40;99.90;;;;;;5077244;28;19955;-69
2022/05/04 01:59:36;;;;;;;;;;;8.20;99.90;;;;;;5090765;28;19929;-71
2022/05/04 02:02:04;;;;;;;;;;;8.10;99.90;;;;;;5106771;28;19928;-68
2022/05/04 02:04:30;;;;;;;;;;;8.10;99.90;;;;;;5086627;28;19927;-69
2022/05/04 02:06:55;;;;;;;;;;;8.10;99.90;;;;;;5091623;28;19931;-69
2022/05/04 02:09:21;;;;;;;;;;;8.10;99.90;;;;;;5093665;28;19971;-69
2022/05/04 02:11:46;;;;;;;;;;;8.10;99.90;;;;;;5093601;28;20367;-69
2022/05/04 02:14:12;;;;;;;;;;;8.40;99.90;;;;;;5093832;28;19931;-68
2022/05/04 02:16:38;;;;;;;;;;;8.00;99.90;;;;;;5091823;28;20293;-69
2022/05/04 02:19:03;;;;;;;;;;;8.10;99.90;;;;;;5086215;28;20007;-69
2022/05/04 02:21:29;;;;;;;;;;;8.00;99.90;;;;;;5105794;28;19927;-69
2022/05/04 02:23:54;;;;;;;;;;;8.10;99.90;;;;;;5077066;28;19931;-69
2022/05/04 02:26:20;;;;;;;;;;;8.10;99.90;;;;;;5093644;28;19939;-70
2022/05/04 02:28:46;;;;;;;;;;;8.00;99.90;;;;;;5089346;28;19931;-69
2022/05/04 02:31:11;;;;;;;;;;;8.00;99.90;;;;;;5092661;28;19924;-69
2022/05/04 02:33:37;;;;;;;;;;;8.40;99.90;;;;;;5086849;28;19928;-69
2022/05/04 02:38:47;;;;;;;;;;;8.00;99.90;;;;;;5094635;28;19977;-69
2022/05/04 02:41:13;;;;;;;;;;;8.00;99.90;;;;;;5092762;28;19932;-69
2022/05/04 02:43:38;;;;;;;;;;;8.00;99.90;;;;;;5093957;28;19938;-69
2022/05/04 02:46:13;;;;;;;;;;;8.00;99.90;;;;;;5104046;28;20017;-70
2022/05/04 02:48:39;;;;;;;;;;;8.00;99.90;;;;;;5112512;28;19924;-69
2022/05/04 02:51:04;;;;;;;;;;;8.00;99.90;;;;;;5094848;28;19928;-69
2022/05/04 02:53:30;;;;;;;;;;;8.00;99.90;;;;;;5096711;28;20617;-69
2022/05/04 02:55:55;;;;;;;;;;;9.30;99.90;;;;;;5085088;28;20293;-68
2022/05/04 02:58:21;;;;;;;;;;;8.00;99.90;;;;;;5091233;28;19942;-69
2022/05/04 03:00:46;;;;;;;;;;;8.00;99.90;;;;;;5091181;28;20024;-69
2022/05/04 03:03:12;;;;;;;;;;;7.90;99.90;;;;;;5094553;28;20460;-69
2022/05/04 03:05:37;;;;;;;;;;;7.90;99.90;;;;;;5091929;28;20274;-69
2022/05/04 03:08:03;;;;;;;;;;;7.90;99.90;;;;;;5093092;28;19924;-69
2022/05/04 03:10:28;;;;;;;;;;;7.80;99.90;;;;;;5080491;28;19928;-68
2022/05/04 03:12:54;;;;;;;;;;;7.80;99.90;;;;;;5095188;28;19932;-69
2022/05/04 03:15:20;;;;;;;;;;;8.20;99.90;;;;;;5092433;28;19924;-69
2022/05/04 03:17:45;;;;;;;;;;;7.80;99.90;;;;;;5090637;28;19977;-69
2022/05/04 03:20:12;;;;;;;;;;;7.80;99.90;;;;;;5094349;28;19967;-69
2022/05/04 03:22:38;;;;;;;;;;;7.80;99.90;;;;;;5095004;28;20451;-69
2022/05/04 03:25:07;;;;;;;;;;;7.80;99.90;;;;;;5090039;28;19924;-69
2022/05/04 03:27:33;;;;;;;;;;;7.90;99.90;;;;;;5093293;28;19924;-70
2022/05/04 03:29:58;;;;;;;;;;;7.90;99.90;;;;;;5088896;28;19932;-69
2022/05/04 03:32:24;;;;;;;;;;;7.80;99.90;;;;;;5087123;28;20262;-69
2022/05/04 03:34:49;;;;;;;;;;;7.80;99.90;;;;;;5076460;28;19928;-69
2022/05/04 03:37:18;;;;;;;;;;;8.00;99.90;;;;;;5091084;28;19996;-69
2022/05/04 03:39:43;;;;;;;;;;;7.90;99.90;;;;;;5082204;28;20043;-69
2022/05/04 03:42:12;;;;;;;;;;;7.80;99.90;;;;;;5106308;28;19924;-68
2022/05/04 03:44:37;;;;;;;;;;;7.90;99.90;;;;;;5091088;28;20370;-69
2022/05/04 03:47:03;;;;;;;;;;;8.20;99.90;;;;;;5085205;28;19930;-68
2022/05/04 03:49:28;;;;;;;;;;;7.90;99.90;;;;;;5092286;28;20015;-68
2022/05/04 03:51:56;;;;;;;;;;;7.80;99.90;;;;;;5093746;28;19928;-69
2022/05/04 03:54:21;;;;;;;;;;;7.80;99.90;;;;;;5108962;28;19924;-69
2022/05/04 03:56:47;;;;;;;;;;;8.90;99.90;;;;;;5090418;28;19950;-69
2022/05/04 03:59:13;;;;;;;;;;;7.80;99.90;;;;;;5092013;28;20018;-70
2022/05/04 04:01:38;;;;;;;;;;;7.90;99.90;;;;;;5090360;28;19924;-69
2022/05/04 04:04:04;;;;;;;;;;;8.10;99.90;;;;;;5088958;28;19928;-69
2022/05/04 04:06:30;;;;;;;;;;;7.90;99.90;;;;;;5088318;28;19924;-69
2022/05/04 04:08:55;;;;;;;;;;;8.00;99.90;;;;;;5093167;28;20335;-69
2022/05/04 04:11:21;;;;;;;;;;;8.10;99.90;;;;;;5080415;28;20500;-69
2022/05/04 04:13:47;;;;;;;;;;;8.10;99.90;;;;;;5083181;28;20008;-69
2022/05/04 04:16:13;;;;;;;;;;;7.90;99.90;;;;;;5086017;28;19931;-69
2022/05/04 04:18:38;;;;;;;;;;;7.90;99.90;;;;;;5089982;28;19924;-69
2022/05/04 04:23:48;;;;;;;;;;;7.80;99.90;;;;;;5089430;28;19924;-69
2022/05/04 04:26:14;;;;;;;;;;;7.90;99.90;;;;;;5079129;28;20332;-68
2022/05/04 04:28:40;;;;;;;;;;;8.10;99.90;;;;;;5088189;28;19924;-69
2022/05/04 04:31:09;;;;;;;;;;;7.80;99.90;;;;;;5090351;28;20369;-68
2022/05/04 04:33:35;;;;;;;;;;;7.80;99.90;;;;;;5092510;28;19969;-68
2022/05/04 04:36:00;;;;;;;;;;;7.90;99.90;;;;;;5088456;28;19924;-68
2022/05/04 04:38:26;;;;;;;;;;;7.90;99.90;;;;;;5086966;28;20476;-68
2022/05/04 04:40:52;;;;;;;;;;;7.80;99.90;;;;;;5084895;28;20011;-68
2022/05/04 04:43:18;;;;;;;;;;;7.90;99.90;;;;;;5083250;28;19924;-69
2022/05/04 04:45:44;;;;;;;;;;;7.90;99.90;;;;;;5093137;28;19924;-69
2022/05/04 04:48:10;;;;;;;;;;;7.90;99.90;;;;;;5089149;28;19932;-69
2022/05/04 04:50:35;;;;;;;;;;;7.90;99.90;;;;;;5080311;28;19931;-70
2022/05/04 04:53:01;;;;;;;;;;;7.90;99.90;;;;;;5090158;28;19985;-68
2022/05/04 04:55:27;;;;;;;;;;;8.10;99.90;;;;;;5100848;28;19944;-70
2022/05/04 04:57:52;;;;;;;;;;;8.00;99.90;;;;;;5091255;28;19924;-68
2022/05/04 05:00:18;;;;;;;;;;;8.00;99.90;;;;;;5091304;28;19999;-68
2022/05/04 05:02:44;;;;;;;;;;;8.00;99.90;;;;;;5085755;28;19960;-69
2022/05/04 05:05:09;;;;;;;;;;;9.50;99.90;;;;;;5093932;28;19971;-69
2022/05/04 05:07:36;;;;;;;;;;;8.00;99.90;;;;;;5084693;28;19974;-69
2022/05/04 05:10:02;;;;;;;;;;;8.00;99.90;;;;;;5093857;28;19968;-68
2022/05/04 05:12:28;;;;;;;;;;;8.00;99.90;;;;;;5092749;28;19940;-69
2022/05/04 05:17:38;;;;;;;;;;;8.10;99.90;;;;;;5092236;28;19993;-69
2022/05/04 05:20:04;;;;;;;;;;;8.20;99.40;;;;;;5080015;28;20350;-70
2022/05/04 05:22:29;;;;;;;;;;;8.10;99.40;;;;;;5090114;28;19924;-68
2022/05/04 05:24:55;;;;;;;;;;;8.20;99.10;;;;;;5092483;28;19967;-68
2022/05/04 05:27:22;;;;;;;;;;;8.10;99.90;;;;;;5091488;28;19973;-70
2022/05/04 05:29:48;;;;;;;;;;;8.20;99.80;;;;;;5091020;28;19924;-68
2022/05/04 05:32:13;;;;;;;;;;;8.20;99.30;;;;;;5087062;28;19931;-70
2022/05/04 05:34:39;;;;;;;;;;;8.10;99.50;;;;;;5090876;28;19930;-69
2022/05/04 05:37:04;;;;;;;;;;;8.10;99.50;;;;;;5080051;28;19947;-69
2022/05/04 05:39:30;;;;;;;;;;;8.80;99.60;;;;;;5072224;28;20042;-69
2022/05/04 05:41:55;;;;;;;;;;;8.20;99.80;;;;;;5073091;28;20019;-70
2022/05/04 05:44:21;;;;;;;;;;;8.30;99.30;;;;;;5087196;28;20007;-73
2022/05/04 05:46:47;;;;;;;;;;;8.20;99.70;;;;;;5088110;28;20393;-69
2022/05/04 05:49:12;;;;;;;;;;;8.20;99.70;;;;;;5079754;28;19924;-69
2022/05/04 05:51:39;;;;;;;;;;;8.30;99.80;;;;;;5080064;28;19932;-69
2022/05/04 05:54:04;;;;;;;;;;;8.30;99.30;;;;;;5080204;28;19920;-70
2022/05/04 05:56:30;;;;;;;;;;;8.40;99.10;;;;;;5088786;28;19931;-69
2022/05/04 05:58:55;;;;;;;;;;;8.40;99.00;;;;;;5089290;28;19925;-69
2022/05/04 06:01:21;;;;;;;;;;;8.50;98.80;;;;;;5092594;28;19939;-68
2022/05/04 06:03:46;;;;;;;;;;;8.40;99.10;;;;;;5090962;28;19924;-69
2022/05/04 06:06:12;;;;;;;;;;;8.40;99.20;;;;;;5091016;28;19970;-69
2022/05/04 06:08:38;;;;;;;;;;;8.50;99.20;;;;;;5092214;28;20433;-68
2022/05/04 06:11:04;;;;;;;;;;;8.50;99.30;;;;;;5091329;28;19930;-68
2022/05/04 06:13:30;;;;;;;;;;;9.00;98.40;;;;;;5092251;28;20363;-69
2022/05/04 06:15:56;;;;;;;;;;;8.60;98.40;;;;;;5089673;28;19928;-70
2022/05/04 06:18:21;;;;;;;;;;;8.70;99.10;;;;;;5089028;28;19932;-70
2022/05/04 06:20:47;;;;;;;;;;;8.50;99.00;;;;;;5090824;28;19924;-69
2022/05/04 06:23:12;;;;;;;;;;;8.60;99.10;;;;;;5093141;28;19924;-69
2022/05/04 06:25:38;;;;;;;;;;;8.60;98.60;;;;;;5089168;28;19924;-70
2022/05/04 06:28:03;;;;;;;;;;;8.70;98.40;;;;;;5079996;28;19932;-70
2022/05/04 06:35:57;;;;;;;;;;;8.70;98.40;;;;;;5079493;28;19967;-69
2022/05/04 06:38:23;;;;;;;;;;;9.00;98.50;;;;;;5088438;28;19963;-68
2022/05/04 06:40:49;;;;;;;;;;;8.90;99.00;;;;;;5080831;28;19978;-69
2022/05/04 06:43:14;;;;;;;;;;;9.00;99.20;;;;;;5087338;28;20365;-69
2022/05/04 06:45:40;;;;;;;;;;;9.10;98.60;;;;;;5085634;28;19924;-71
2022/05/04 06:48:06;;;;;;;;;;;9.20;98.20;;;;;;5090103;28;19925;-68
2022/05/04 06:50:32;;;;;;;;;;;9.20;98.20;;;;;;5085393;28;19924;-69
2022/05/04 06:52:58;;;;;;;;;;;9.20;98.00;;;;;;5088758;28;20251;-70
2022/05/04 06:55:24;;;;;;;;;;;9.30;98.10;;;;;;5089749;28;19930;-69
2022/05/04 06:57:49;;;;;;;;;;;9.40;98.30;;;;;;5093663;28;20404;-69
2022/05/04 07:00:15;;;;;;;;;;;9.40;98.30;;;;;;5091056;28;21059;-69
2022/05/04 07:02:41;;;;;;;;;;;9.50;98.80;;;;;;5079618;28;19924;-69
2022/05/04 07:05:06;;;;;;;;;;;9.80;98.70;;;;;;5089928;28;19959;-69
2022/05/04 07:07:32;;;;;;;;;;;9.70;98.50;;;;;;5092962;28;19924;-68
2022/05/04 07:09:58;;;;;;;;;;;9.80;98.30;;;;;;5075149;28;19925;-69
2022/05/04 07:12:24;;;;;;;;;;;9.90;97.60;;;;;;5095185;28;19924;-68
2022/05/04 07:14:51;;;;;;;;;;;10.10;96.20;;;;;;5091028;28;19928;-69
2022/05/04 07:17:17;;;;;;;;;;;10.10;95.80;;;;;;5092118;28;20054;-69
2022/05/04 07:19:43;;;;;;;;;;;10.00;95.10;;;;;;5095198;28;20010;-69
2022/05/04 07:22:08;;;;;;;;;;;10.00;95.90;;;;;;5080498;28;19931;-68
2022/05/04 07:24:34;;;;;;;;;;;9.90;96.40;;;;;;5097031;28;19963;-69
2022/05/04 07:26:59;;;;;;;;;;;9.90;97.10;;;;;;5097595;28;19932;-69
2022/05/04 07:29:25;;;;;;;;;;;10.00;96.30;;;;;;5094318;28;19924;-69
2022/05/04 07:31:50;;;;;;;;;;;10.00;96.40;;;;;;5095380;28;19999;-69
2022/05/04 07:34:19;;;;;;;;;;;10.00;96.50;;;;;;5096277;28;20007;-69
2022/05/04 07:36:45;;;;;;;;;;;10.10;96.10;;;;;;5096085;28;20419;-69
2022/05/04 07:42:21;;;;;;;;;;;10.30;95.00;;;;;;5095739;28;19924;-69
2022/05/04 07:44:43;;;;;;;;;;;10.30;94.50;;;;;;5093483;28;19924;-68
2022/05/04 07:47:09;;;;;;;;;;;10.30;94.40;;;;;;5090612;28;19938;-69
2022/05/04 07:49:34;;;;;;;;;;;10.20;95.30;;;;;;5093243;28;19931;-69
2022/05/04 07:52:00;;;;;;;;;;;10.20;94.80;;;;;;5083770;28;19950;-68
2022/05/04 07:54:28;;;;;;;;;;;10.20;94.90;;;;;;5086304;28;19924;-67
2022/05/04 07:56:53;;;;;;;;;;;10.40;93.90;;;;;;5070573;28;21367;-69
2022/05/04 07:59:19;;;;;;;;;;;10.30;95.80;;;;;;5080665;28;20008;-69
2022/05/04 08:04:29;;;;;;;;;;;10.40;95.30;;;;;;5081315;28;19928;-70
2022/05/04 08:06:54;;;;;;;;;;;10.60;94.90;;;;;;5086501;28;19924;-69
2022/05/04 08:09:20;;;;;;;;;;;10.60;94.20;;;;;;5090018;28;19928;-69
2022/05/04 08:11:46;;;;;;;;;;;10.50;95.90;;;;;;5081591;28;19931;-69
2022/05/04 08:14:12;;;;;;;;;;;11.10;94.90;;;;;;5094736;28;19924;-68
2022/05/04 08:16:39;;;;;;;;;;;10.60;94.90;;;;;;5095560;28;19931;-69
2022/05/04 08:19:06;;;;;;;;;;;10.60;95.10;;;;;;5095477;28;20045;-68
2022/05/04 08:21:32;;;;;;;;;;;10.70;94.80;;;;;;5095028;28;20031;-69
2022/05/04 08:23:57;;;;;;;;;;;10.70;94.10;;;;;;5092218;28;20401;-69
2022/05/04 08:26:23;;;;;;;;;;;11.00;93.60;;;;;;5093655;28;19973;-68
2022/05/04 08:28:48;;;;;;;;;;;10.70;94.20;;;;;;5094115;28;19928;-70
2022/05/04 08:31:14;;;;;;;;;;;10.70;93.60;;;;;;5086836;28;20349;-70
2022/05/04 08:33:40;;;;;;;;;;;10.60;93.90;;;;;;5076617;28;19927;-68
2022/05/04 08:36:06;;;;;;;;;;;10.60;94.10;;;;;;5093178;28;19924;-70
2022/05/04 08:38:31;;;;;;;;;;;10.60;94.80;;;;;;5095979;28;20293;-68
2022/05/04 08:40:57;;;;;;;;;;;10.70;95.20;;;;;;5092675;28;20571;-68
2022/05/04 08:43:24;;;;;;;;;;;11.00;94.70;;;;;;5109687;28;20601;-68
2022/05/04 08:45:53;;;;;;;;;;;10.90;94.40;;;;;;5092730;28;20389;-69
2022/05/04 08:48:20;;;;;;;;;;;10.90;93.50;;;;;;5093115;28;20011;-68
2022/05/04 08:50:45;;;;;;;;;;;10.90;93.20;;;;;;5071790;28;19924;-68
2022/05/04 08:53:12;;;;;;;;;;;10.90;93.30;;;;;;5086296;28;19984;-69
2022/05/04 08:55:38;;;;;;;;;;;10.80;94.90;;;;;;5084749;28;20382;-68
2022/05/04 08:58:05;;;;;;;;;;;10.90;95.70;;;;;;5094910;28;19924;-69
2022/05/04 09:00:31;;;;;;;;;;;11.10;94.40;;;;;;5092551;28;19943;-68
2022/05/04 09:02:57;;;;;;;;;;;11.20;93.80;;;;;;5081209;28;20392;-68
2022/05/04 09:05:26;;;;;;;;;;;11.20;93.80;;;;;;5090703;28;19924;-68
2022/05/04 09:07:52;;;;;;;;;;;11.40;94.20;;;;;;5094446;28;19940;-68
2022/05/04 09:10:22;;;;;;;;;;;11.20;93.30;;;;;;5086255;28;19932;-68
2022/05/04 09:12:49;;;;;;;;;;;11.20;93.40;;;;;;5084283;28;19924;-68
2022/05/04 09:15:22;;;;;;;;;;;11.20;93.40;;;;;;5087875;28;19928;-68
2022/05/04 09:18:05;;;;;;;;;;;11.10;93.50;;;;;;5078452;28;19931;-70
2022/05/04 09:20:53;;;;;;;;;;;11.10;94.00;;;;;;5092087;28;19935;-70
2022/05/04 09:23:29;;;;;;;;;;;11.10;94.40;;;;;;5089522;28;20355;-69
2022/05/04 09:25:56;;;;;;;;;;;11.20;95.00;;;;;;5099910;28;19930;-69
2022/05/04 09:28:26;;;;;;;;;;;11.40;94.90;;;;;;5101938;28;20018;-68
2022/05/04 09:30:54;;;;;;;;;;;11.50;94.90;;;;;;5094962;28;19924;-68
2022/05/04 09:33:26;;;;;;;;;;;11.60;93.50;;;;;;5087713;28;19924;-69
2022/05/04 09:35:52;;;;;;;;;;;11.60;92.50;;;;;;5093506;28;19932;-68
2022/05/04 09:46:39;;;;;;;;;;;11.80;93.30;;;;;;5093703;28;19931;-67
2022/05/04 09:49:21;;;;;;;;;;;12.00;92.80;;;;;;5090107;28;20411;-70
2022/05/04 09:51:51;;;;;;;;;;;12.00;91.60;;;;;;5089157;28;19930;-69
2022/05/04 09:54:17;;;;;;;;;;;11.90;92.40;;;;;;5091313;28;19924;-68
2022/05/04 09:56:47;;;;;;;;;;;11.80;91.80;;;;;;5086985;28;19932;-69
2022/05/04 09:59:17;;;;;;;;;;;11.80;91.90;;;;;;5092566;28;19924;-70
2022/05/04 10:01:43;;;;;;;;;;;11.80;92.10;;;;;;5093602;28;19924;-68
2022/05/04 10:04:10;;;;;;;;;;;11.70;92.30;;;;;;5092225;28;20037;-68
2022/05/04 10:06:36;;;;;;;;;;;11.70;92.10;;;;;;5092587;28;19924;-68
2022/05/04 10:09:02;;;;;;;;;;;11.80;92.10;;;;;;5092568;28;20004;-68
2022/05/04 10:11:30;;;;;;;;;;;11.90;91.40;;;;;;5077449;28;19924;-69
2022/05/04 10:13:59;;;;;;;;;;;11.80;92.00;;;;;;5094043;28;19924;-70
2022/05/04 10:16:25;;;;;;;;;;;11.90;92.00;;;;;;5093610;28;19924;-69
2022/05/04 10:18:52;;;;;;;;;;;12.00;92.10;;;;;;5087226;28;19939;-69
2022/05/04 10:21:18;;;;;;;;;;;12.20;91.70;;;;;;5091212;28;20468;-69
2022/05/04 10:23:46;;;;;;;;;;;12.40;93.00;;;;;;5095214;28;20019;-69
2022/05/04 10:26:14;;;;;;;;;;;13.30;92.90;;;;;;5090695;28;20036;-68
2022/05/04 10:30:30;;;;;;;;;;;13.50;89.70;;;;;;5082641;28;19976;-68
2022/05/04 10:31:29;;;;;;;;;;;13.50;89.60;;;;;;5088941;28;19928;-67
2022/05/04 10:34:01;;;;;;;;;;;13.40;87.80;;;;;;5095512;28;19924;-68
2022/05/04 10:36:28;;;;;;;;;;;13.40;87.90;;;;;;5067536;28;20008;-68
2022/05/04 10:38:57;;;;;;;;;;;13.20;88.10;;;;;;5090535;28;19960;-68
2022/05/04 10:41:36;;;;;;;;;;;13.10;88.10;;;;;;5094183;28;19924;-68
2022/05/04 10:44:03;;;;;;;;;;;13.20;88.20;;;;;;5090106;28;19925;-67
2022/05/04 10:46:33;;;;;;;;;;;13.50;88.70;;;;;;5094438;28;19930;-68
2022/05/04 10:49:02;;;;;;;;;;;14.00;85.60;;;;;;5093199;28;19938;-67
2022/05/04 10:51:35;;;;;;;;;;;14.40;83.20;;;;;;5093939;28;20401;-69
2022/05/04 10:54:08;;;;;;;;;;;15.10;80.60;;;;;;5096628;28;20312;-70
2022/05/04 10:56:40;;;;;;;;;;;14.80;79.70;;;;;;5097966;28;20338;-69
2022/05/04 10:59:06;;;;;;;;;;;14.80;83.50;;;;;;5094492;28;19925;-68
2022/05/04 11:01:36;;;;;;;;;;;15.00;82.50;;;;;;5089577;28;19924;-68
2022/05/04 11:04:10;;;;;;;;;;;15.40;81.50;;;;;;5094726;28;19924;-68
2022/05/04 11:06:43;;;;;;;;;;;15.80;79.70;;;;;;5091154;28;19931;-68
2022/05/04 11:09:12;;;;;;;;;;;16.00;76.90;;;;;;5089231;28;20011;-67
2022/05/04 11:11:40;;;;;;;;;;;16.40;74.40;;;;;;5094024;28;19924;-68
2022/05/04 11:14:06;;;;;;;;;;;16.60;76.90;;;;;;5095672;28;19932;-68
2022/05/04 11:16:32;;;;;;;;;;;17.00;73.80;;;;;;5094126;28;19924;-68
2022/05/04 11:18:58;;;;;;;;;;;17.40;72.70;;;;;;5106833;28;19924;-67
2022/05/04 11:21:25;;;;;;;;;;;17.50;73.50;;;;;;5089043;28;19969;-69
2022/05/04 11:23:52;;;;;;;;;;;17.70;69.20;;;;;;5094286;28;19932;-68
2022/05/04 11:26:18;;;;;;;;;;;17.90;68.30;;;;;;5089659;28;19924;-69
2022/05/04 11:28:44;;;;;;;;;;;18.00;66.70;;;;;;5092823;28;19927;-68
2022/05/04 11:31:11;;;;;;;;;;;17.90;64.80;;;;;;5093254;28;19945;-69
2022/05/04 11:33:37;;;;;;;;;;;17.40;68.20;;;;;;5088895;28;19924;-68
2022/05/04 11:36:02;;;;;;;;;;;17.00;67.70;;;;;;5110083;28;19938;-69
2022/05/04 11:38:28;;;;;;;;;;;16.70;68.30;;;;;;5079648;28;20389;-67
2022/05/04 11:40:54;;;;;;;;;;;16.50;66.70;;;;;;5084683;28;19932;-68
2022/05/04 11:43:21;;;;;;;;;;;16.00;69.30;;;;;;5089052;28;19925;-69
2022/05/04 11:45:47;;;;;;;;;;;15.90;69.40;;;;;;5098207;28;20402;-69
2022/05/04 11:48:13;;;;;;;;;;;15.80;68.80;;;;;;5082582;28;19924;-68
2022/05/04 11:50:41;;;;;;;;;;;15.60;69.70;;;;;;5108132;28;20689;-69
2022/05/04 11:53:07;;;;;;;;;;;15.50;73.80;;;;;;5074867;28;20020;-68
2022/05/04 11:55:34;;;;;;;;;;;15.80;72.10;;;;;;5084907;28;19974;-68
2022/05/04 11:58:00;;;;;;;;;;;16.10;73.40;;;;;;5101564;28;19925;-69
2022/05/04 12:00:25;;;;;;;;;;;16.60;71.80;;;;;;5109463;28;19930;-68
2022/05/04 12:02:51;;;;;;;;;;;16.80;69.10;;;;;;5090395;28;19924;-69
2022/05/04 12:05:17;;;;;;;;;;;17.10;71.90;;;;;;5096054;28;19939;-69
2022/05/04 12:07:43;;;;;;;;;;;17.60;71.00;;;;;;5103476;28;20447;-69
2022/05/04 12:10:09;;;;;;;;;;;18.00;68.30;;;;;;5105937;28;19928;-68
2022/05/04 12:12:36;;;;;;;;;;;18.30;66.60;;;;;;5102108;28;20286;-69
2022/05/04 12:15:03;;;;;;;;;;;18.50;66.10;;;;;;5114268;27;19924;-68
2022/05/04 12:17:28;;;;;;;;;;;18.50;65.80;;;;;;5105628;28;19930;-69
2022/05/04 12:19:54;;;;;;;;;;;18.90;65.50;;;;;;5086857;28;20285;-69
2022/05/04 12:22:20;;;;;;;;;;;19.10;63.40;;;;;;5088306;28;20350;-69
2022/05/04 12:24:45;;;;;;;;;;;19.20;63.40;;;;;;5095747;28;19923;-68
2022/05/04 12:27:11;;;;;;;;;;;19.30;59.90;;;;;;5092103;28;19927;-69
2022/05/04 12:35:09;;;;;;;;;;;18.90;61.40;;;;;;5082431;28;19924;-70
2022/05/04 12:37:34;;;;;;;;;;;19.20;62.40;;;;;;5090690;28;20238;-70
2022/05/04 12:40:01;;;;;;;;;;;19.60;61.60;;;;;;5090971;28;19924;-69
2022/05/04 12:42:27;;;;;;;;;;;20.00;62.20;;;;;;5093261;28;19939;-69
2022/05/04 12:44:53;;;;;;;;;;;20.30;62.30;;;;;;5092101;28;20289;-70
2022/05/04 12:47:22;;;;;;;;;;;20.80;58.80;;;;;;5083966;28;19932;-71
2022/05/04 12:49:47;;;;;;;;;;;21.30;58.30;;;;;;5089630;28;19949;-70
2022/05/04 12:52:13;;;;;;;;;;;21.10;57.60;;;;;;5095052;28;19928;-69
2022/05/04 12:54:39;;;;;;;;;;;21.20;58.60;;;;;;5086503;28;19952;-69
2022/05/04 12:57:04;;;;;;;;;;;21.10;56.80;;;;;;5091017;28;19966;-68
2022/05/04 12:59:30;;;;;;;;;;;20.80;57.30;;;;;;5091733;28;19936;-69
2022/05/04 13:01:56;;;;;;;;;;;20.80;58.20;;;;;;5088662;28;19925;-68
2022/05/04 13:04:21;;;;;;;;;;;21.30;58.20;;;;;;5090209;28;20065;-68
2022/05/04 13:06:47;;;;;;;;;;;21.70;55.80;;;;;;5092480;28;19973;-70
2022/05/04 13:09:13;;;;;;;;;;;21.90;55.20;;;;;;5106306;28;19931;-69
2022/05/04 13:11:39;;;;;;;;;;;21.90;53.90;;;;;;5109324;27;19924;-69
2022/05/04 13:14:07;;;;;;;;;;;22.00;53.60;;;;;;5092305;28;19924;-68
2022/05/04 13:16:33;;;;;;;;;;;21.20;52.60;;;;;;5091983;28;19931;-68
2022/05/04 13:19:00;;;;;;;;;;;20.90;53.30;;;;;;5081850;28;19924;-68
2022/05/04 13:21:25;;;;;;;;;;;19.90;56.20;;;;;;5087391;28;19924;-69
2022/05/04 13:23:51;;;;;;;;;;;19.00;55.50;;;;;;5106341;28;20433;-68
2022/05/04 13:26:17;;;;;;;;;;;19.00;58.40;;;;;;5090778;28;19930;-69
2022/05/04 13:28:46;;;;;;;;;;;19.50;57.20;;;;;;5087775;28;20366;-68
2022/05/04 13:31:12;;;;;;;;;;;19.60;57.60;;;;;;5088424;28;20003;-68
2022/05/04 13:33:38;;;;;;;;;;;20.10;55.00;;;;;;5083516;28;20006;-68
2022/05/04 13:36:04;;;;;;;;;;;20.60;57.10;;;;;;5090780;28;19943;-68
2022/05/04 13:38:29;;;;;;;;;;;21.00;55.40;;;;;;5089091;28;19928;-69
2022/05/04 13:40:57;;;;;;;;;;;21.30;53.90;;;;;;5091451;28;19939;-68
2022/05/04 13:43:24;;;;;;;;;;;21.30;54.40;;;;;;5092647;28;19959;-69
2022/05/04 13:45:49;;;;;;;;;;;21.30;53.00;;;;;;5087376;28;19925;-68
2022/05/04 13:48:18;;;;;;;;;;;21.00;53.10;;;;;;5090948;28;19969;-69
2022/05/04 13:53:28;;;;;;;;;;;20.80;53.80;;;;;;5088336;28;19932;-69
2022/05/04 13:55:54;;;;;;;;;;;20.90;54.90;;;;;;5090206;28;19946;-68
2022/05/04 13:58:21;;;;;;;;;;;21.30;52.50;;;;;;5103071;28;19928;-68
2022/05/04 14:00:47;;;;;;;;;;;21.20;54.60;;;;;;5089021;28;20018;-68
2022/05/04 14:03:12;;;;;;;;;;;20.70;54.20;;;;;;5088176;28;19930;-68
2022/05/04 14:05:39;;;;;;;;;;;21.10;54.60;;;;;;5103035;28;20296;-68
2022/05/04 14:08:05;;;;;;;;;;;21.60;53.30;;;;;;5086621;28;19979;-69
2022/05/04 14:10:31;;;;;;;;;;;22.00;52.20;;;;;;5104353;28;19936;-69
2022/05/04 14:12:59;;;;;;;;;;;21.90;51.40;;;;;;5088736;28;19924;-68
2022/05/04 14:15:27;;;;;;;;;;;21.10;52.60;;;;;;5088035;28;19971;-66
2022/05/04 14:17:53;;;;;;;;;;;20.80;53.10;;;;;;5087793;28;20018;-68
2022/05/04 14:20:19;;;;;;;;;;;20.70;52.20;;;;;;5086252;28;19989;-68
2022/05/04 14:22:45;;;;;;;;;;;19.90;54.10;;;;;;5104584;28;19931;-68
2022/05/04 14:25:11;;;;;;;;;;;19.90;53.80;;;;;;5088283;28;20400;-67
2022/05/04 14:27:37;;;;;;;;;;;19.60;55.70;;;;;;5087475;28;20289;-68
2022/05/04 14:30:03;;;;;;;;;;;20.30;54.70;;;;;;5084534;28;19924;-69
2022/05/04 14:32:29;;;;;;;;;;;20.90;54.20;;;;;;5088728;28;19932;-68
2022/05/04 14:34:54;;;;;;;;;;;21.30;53.80;;;;;;5087443;28;19931;-69
2022/05/04 14:37:20;;;;;;;;;;;21.50;53.80;;;;;;5088685;28;20236;-69
2022/05/04 14:39:48;;;;;;;;;;;22.20;52.40;;;;;;5087209;28;19974;-67
2022/05/04 14:42:14;;;;;;;;;;;22.40;51.20;;;;;;5087534;28;19964;-69
2022/05/04 14:44:39;;;;;;;;;;;21.50;51.60;;;;;;5068709;28;19928;-69
2022/05/04 14:47:05;;;;;;;;;;;20.70;52.90;;;;;;5070837;28;19973;-68
2022/05/04 14:49:31;;;;;;;;;;;19.80;54.30;;;;;;5086093;28;19932;-69
2022/05/04 14:51:56;;;;;;;;;;;19.30;55.30;;;;;;5088993;28;19928;-67
2022/05/04 14:54:22;;;;;;;;;;;18.30;56.40;;;;;;5087498;28;19931;-67
2022/05/04 14:56:48;;;;;;;;;;;17.70;57.60;;;;;;5084861;28;20483;-68